createdAt,value
2022-10-11T00:00:52.409Z,24.07
2022-10-11T00:03:19.396Z,18.77
2022-10-11T00:05:46.664Z,23.27
2022-10-11T00:08:14.126Z,22.80
2022-10-11T00:10:41.662Z,22.57
2022-10-11T00:13:08.714Z,17.80
2022-10-11T00:15:35.782Z,15.70
2022-10-11T00:18:05.364Z,14.77
2022-10-11T00:20:32.476Z,18.47
2022-10-11T00:22:59.282Z,14.23
2022-10-11T00:25:27.160Z,21.40
2022-10-11T00:27:54.606Z,16.67
2022-10-11T00:30:21.503Z,16.50
2022-10-11T00:32:48.411Z,19.97
2022-10-11T00:35:16.710Z,18.03
2022-10-11T00:37:43.649Z,14.27
2022-10-11T00:40:15.747Z,14.87
2022-10-11T00:42:46.585Z,14.63
2022-10-11T00:45:31.397Z,18.80
2022-10-11T00:48:04.668Z,20.63
2022-10-11T00:50:35.002Z,15.60
2022-10-11T00:53:05.472Z,16.67
2022-10-11T00:55:37.444Z,13.63
2022-10-11T00:58:04.835Z,13.43
2022-10-11T01:00:32.812Z,18.47
2022-10-11T01:03:01.243Z,21.87
2022-10-11T01:05:29.940Z,19.77
2022-10-11T01:08:00.784Z,25.03
2022-10-11T01:10:28.746Z,19.17
2022-10-11T01:12:55.580Z,16.03
2022-10-11T01:15:54.170Z,14.37
2022-10-11T01:18:50.277Z,15.53
2022-10-11T01:21:55.034Z,17.27
2022-10-11T01:24:40.086Z,15.17
2022-10-11T01:27:28.118Z,18.17
2022-10-11T01:30:19.712Z,24.50
2022-10-11T01:32:55.361Z,16.87
2022-10-11T01:35:28.457Z,17.90
2022-10-11T01:38:33.247Z,20.40
2022-10-11T01:41:15.545Z,18.43
2022-10-11T01:43:43.605Z,17.10
2022-10-11T01:46:11.152Z,18.97
2022-10-11T01:48:57.313Z,20.90
2022-10-11T01:51:31.656Z,17.83
2022-10-11T01:54:13.728Z,20.33
2022-10-11T01:56:52.496Z,21.07
2022-10-11T01:59:29.132Z,22.10
2022-10-11T02:02:16.592Z,21.23
2022-10-11T02:04:45.998Z,16.50
2022-10-11T02:07:17.345Z,18.30
2022-10-11T02:10:07.599Z,22.37
2022-10-11T02:12:44.675Z,23.20
2022-10-11T02:15:14.001Z,30.17
2022-10-11T02:17:47.922Z,22.07
2022-10-11T02:20:21.076Z,28.00
2022-10-11T02:22:51.286Z,20.23
2022-10-11T02:25:22.924Z,23.23
2022-10-11T02:27:52.017Z,19.87
2022-10-11T02:30:19.144Z,26.77
2022-10-11T02:32:47.771Z,23.83
2022-10-11T02:35:15.064Z,20.83
2022-10-11T02:37:59.060Z,23.80
2022-10-11T02:40:33.580Z,21.47
2022-10-11T02:43:17.658Z,26.03
2022-10-11T02:45:49.805Z,21.57
2022-10-11T02:48:17.241Z,25.50
2022-10-11T02:50:44.514Z,24.90
2022-10-11T02:53:11.416Z,23.97
2022-10-11T02:55:39.774Z,22.27
2022-10-11T02:58:06.703Z,21.23
2022-10-11T03:00:33.628Z,24.20
2022-10-11T03:03:00.572Z,25.60
2022-10-11T03:05:27.647Z,24.87
2022-10-11T03:07:54.708Z,22.90
2022-10-11T03:10:21.552Z,26.60
2022-10-11T03:12:48.782Z,21.27
2022-10-11T03:15:15.859Z,24.93
2022-10-11T03:17:45.348Z,21.57
2022-10-11T03:20:12.327Z,24.80
2022-10-11T03:22:39.206Z,22.17
2022-10-11T03:25:06.283Z,25.43
2022-10-11T03:27:33.972Z,26.43
2022-10-11T03:30:01.139Z,27.57
2022-10-11T03:32:28.548Z,30.37
2022-10-11T03:34:55.638Z,28.07
2022-10-11T03:37:22.416Z,27.07
2022-10-11T03:39:49.467Z,20.63
2022-10-11T03:42:16.946Z,21.43
2022-10-11T03:44:43.859Z,24.97
2022-10-11T03:47:10.959Z,21.43
2022-10-11T03:49:43.284Z,24.47
2022-10-11T03:52:11.234Z,21.83
2022-10-11T03:54:38.029Z,21.13
2022-10-11T03:57:04.884Z,26.67
2022-10-11T03:59:31.838Z,23.63
2022-10-11T04:01:58.821Z,22.60
2022-10-11T04:04:25.724Z,28.43
2022-10-11T04:06:52.593Z,25.10
2022-10-11T04:09:19.536Z,23.53
2022-10-11T04:11:46.336Z,16.00
2022-10-11T04:14:14.319Z,18.97
2022-10-11T04:16:41.341Z,19.90
2022-10-11T04:19:08.415Z,17.77
2022-10-11T04:21:35.297Z,20.83
2022-10-11T04:24:02.077Z,20.70
2022-10-11T04:26:30.074Z,24.10
2022-10-11T04:28:57.132Z,26.47
2022-10-11T04:31:24.067Z,14.27
2022-10-11T04:33:51.030Z,22.53
2022-10-11T04:36:17.939Z,17.43
2022-10-11T04:38:44.802Z,18.47
2022-10-11T04:41:13.793Z,13.13
2022-10-11T04:43:40.556Z,16.10
2022-10-11T04:46:08.386Z,18.43
2022-10-11T04:48:35.951Z,16.63
2022-10-11T04:51:02.802Z,16.63
2022-10-11T04:53:30.068Z,13.13
2022-10-11T04:56:05.040Z,20.57
2022-10-11T04:58:33.855Z,18.37
2022-10-11T05:01:01.077Z,17.00
2022-10-11T05:03:28.296Z,26.63
2022-10-11T05:05:55.394Z,20.07
2022-10-11T05:08:25.388Z,20.07
2022-10-11T05:11:05.862Z,20.17
2022-10-11T05:13:33.733Z,17.07
2022-10-11T05:16:01.046Z,23.80
2022-10-11T05:18:28.603Z,17.57
2022-10-11T05:21:19.718Z,17.70
2022-10-11T05:23:48.287Z,13.53
2022-10-11T05:26:16.001Z,13.97
2022-10-11T05:28:45.485Z,17.47
2022-10-11T05:31:12.641Z,15.47
2022-10-11T05:33:39.487Z,14.77
2022-10-11T05:36:07.535Z,18.03
2022-10-11T05:38:34.703Z,16.63
2022-10-11T05:41:06.126Z,15.50
2022-10-11T05:43:32.921Z,19.70
2022-10-11T05:45:59.876Z,19.47
2022-10-11T05:48:27.070Z,16.47
2022-10-11T05:51:03.133Z,26.20
2022-10-11T05:53:30.453Z,20.47
2022-10-11T05:55:57.997Z,22.97
2022-10-11T05:58:25.419Z,17.50
2022-10-11T06:00:52.534Z,22.60
2022-10-11T06:03:21.209Z,15.13
2022-10-11T06:05:48.242Z,23.83
2022-10-11T06:08:15.860Z,22.40
2022-10-11T06:10:42.731Z,16.00
2022-10-11T06:13:09.534Z,19.70
2022-10-11T06:15:41.580Z,19.40
2022-10-11T06:18:08.387Z,23.77
2022-10-11T06:20:35.130Z,17.70
2022-10-11T06:23:01.922Z,19.17
2022-10-11T06:25:28.722Z,27.87
2022-10-11T06:27:55.610Z,19.97
2022-10-11T06:30:22.457Z,15.73
2022-10-11T06:32:49.264Z,21.53
2022-10-11T06:35:16.157Z,19.83
2022-10-11T06:37:42.960Z,21.00
2022-10-11T06:40:10.164Z,23.87
2022-10-11T06:42:37.004Z,16.53
2022-10-11T06:45:03.965Z,17.67
2022-10-11T06:47:30.746Z,21.00
2022-10-11T06:49:57.491Z,14.37
2022-10-11T06:52:25.212Z,16.77
2022-10-11T06:54:51.990Z,11.33
2022-10-11T06:57:18.773Z,17.73
2022-10-11T06:59:45.652Z,18.43
2022-10-11T07:02:12.481Z,16.77
2022-10-11T07:04:39.401Z,16.97
2022-10-11T07:07:06.167Z,24.47
2022-10-11T07:09:34.401Z,19.07
2022-10-11T07:12:01.196Z,19.70
2022-10-11T07:14:28.349Z,13.43
2022-10-11T07:16:55.074Z,16.73
2022-10-11T07:19:21.922Z,16.13
2022-10-11T07:21:48.877Z,17.57
2022-10-11T07:24:15.602Z,11.37
2022-10-11T07:26:43.617Z,19.10
2022-10-11T07:29:11.621Z,12.33
2022-10-11T07:31:40.560Z,11.87
2022-10-11T07:34:07.496Z,12.23
2022-10-11T07:36:34.836Z,8.67
2022-10-11T07:39:04.257Z,20.40
2022-10-11T07:41:31.117Z,11.50
2022-10-11T07:43:57.922Z,12.67
2022-10-11T07:46:24.920Z,10.93
2022-10-11T07:48:51.814Z,11.73
2022-10-11T07:51:21.837Z,16.93
2022-10-11T07:53:51.352Z,12.00
2022-10-11T07:56:21.251Z,13.27
2022-10-11T07:58:53.165Z,12.57
2022-10-11T08:01:21.267Z,13.17
2022-10-11T08:03:49.097Z,16.10
2022-10-11T08:06:18.368Z,16.20
2022-10-11T08:08:45.221Z,12.50
2022-10-11T08:11:26.154Z,14.03
2022-10-11T08:13:53.047Z,14.47
2022-10-11T08:16:20.848Z,12.00
2022-10-11T08:18:48.098Z,11.23
2022-10-11T08:21:16.657Z,14.93
2022-10-11T08:23:43.563Z,13.70
2022-10-11T08:26:10.899Z,16.60
2022-10-11T08:28:38.226Z,13.27
2022-10-11T08:31:05.245Z,15.80
2022-10-11T08:33:32.557Z,12.70
2022-10-11T08:36:03.566Z,15.73
2022-10-11T08:38:30.621Z,12.57
2022-10-11T08:40:59.563Z,8.37
2022-10-11T08:43:26.336Z,8.20
2022-10-11T08:45:57.879Z,12.63
2022-10-11T08:48:47.366Z,11.27
2022-10-11T08:51:38.249Z,8.53
2022-10-11T08:54:14.017Z,15.77
2022-10-11T08:56:43.290Z,10.30
2022-10-11T08:59:12.732Z,12.37
2022-10-11T09:02:05.023Z,9.77
2022-10-11T09:04:32.418Z,14.27
2022-10-11T09:07:07.748Z,10.97
2022-10-11T09:10:07.567Z,14.93
2022-10-11T09:12:43.658Z,11.90
2022-10-11T09:15:18.975Z,11.10
2022-10-11T09:18:21.035Z,10.10
2022-10-11T09:21:08.302Z,12.40
2022-10-11T09:23:37.760Z,9.17
2022-10-11T09:26:19.612Z,9.33
2022-10-11T09:29:10.162Z,12.83
2022-10-11T09:31:36.945Z,17.40
2022-10-11T09:34:12.072Z,10.87
2022-10-11T09:36:45.599Z,10.43
2022-10-11T09:39:17.837Z,9.77
2022-10-11T09:41:50.496Z,10.43
2022-10-11T09:44:24.002Z,10.13
2022-10-11T09:46:54.146Z,12.83
2022-10-11T09:49:25.215Z,14.67
2022-10-11T09:51:58.642Z,10.80
2022-10-11T09:54:44.059Z,7.30
2022-10-11T09:57:29.718Z,10.50
2022-10-11T10:00:02.726Z,10.47
2022-10-11T10:02:30.709Z,14.13
2022-10-11T10:05:14.252Z,11.27
2022-10-11T10:08:19.499Z,7.93
2022-10-11T10:11:02.066Z,9.37
2022-10-11T10:13:51.620Z,7.10
2022-10-11T10:16:33.832Z,8.33
2022-10-11T10:19:04.184Z,8.40
2022-10-11T10:21:31.051Z,13.80
2022-10-11T10:24:03.054Z,8.93
2022-10-11T10:26:31.488Z,11.83
2022-10-11T10:29:10.147Z,9.40
2022-10-11T10:32:08.861Z,13.07
2022-10-11T10:34:38.478Z,9.53
2022-10-11T10:37:45.868Z,9.90
2022-10-11T10:40:23.627Z,8.03
2022-10-11T10:42:51.243Z,15.30
2022-10-11T10:45:21.788Z,14.37
2022-10-11T10:48:27.564Z,6.97
2022-10-11T10:51:13.479Z,12.37
2022-10-11T10:54:10.071Z,7.70
2022-10-11T10:56:56.110Z,7.87
2022-10-11T10:59:58.489Z,9.93
2022-10-11T11:02:55.159Z,10.00
2022-10-11T11:05:59.825Z,11.13
2022-10-11T11:09:13.686Z,9.23
2022-10-11T11:12:15.102Z,9.80
2022-10-11T11:14:47.835Z,10.87
2022-10-11T11:17:32.662Z,10.77
2022-10-11T11:20:38.868Z,12.10
2022-10-11T11:23:31.676Z,12.33
2022-10-11T11:26:20.234Z,14.63
2022-10-11T11:28:57.002Z,8.30
2022-10-11T11:31:38.574Z,10.23
2022-10-11T11:34:26.133Z,6.97
2022-10-11T11:36:57.987Z,7.85
2022-10-11T11:39:51.867Z,10.57
2022-10-11T11:42:45.012Z,11.35
2022-10-11T11:45:51.140Z,11.95
2022-10-11T11:48:26.489Z,11.70
2022-10-11T11:51:05.561Z,11.65
2022-10-11T11:53:51.458Z,6.25
2022-10-11T11:56:29.815Z,10.18
2022-10-11T11:59:14.730Z,7.57
2022-10-11T12:02:16.222Z,9.35
2022-10-11T12:04:45.748Z,13.50
2022-10-11T12:07:19.317Z,12.40
2022-10-11T12:09:51.532Z,8.02
2022-10-11T12:12:37.497Z,14.20
2022-10-11T12:15:19.695Z,7.63
2022-10-11T12:17:58.285Z,11.27
2022-10-11T12:20:31.647Z,11.48
2022-10-11T12:23:29.869Z,13.52
2022-10-11T12:26:18.469Z,12.93
2022-10-11T12:29:00.391Z,7.18
2022-10-11T12:31:33.383Z,8.90
2022-10-11T12:34:08.837Z,8.52
2022-10-11T12:36:41.134Z,10.55
2022-10-11T12:39:20.124Z,9.30
2022-10-11T12:41:55.993Z,6.30
2022-10-11T12:44:26.529Z,8.60
2022-10-11T12:46:59.458Z,7.45
2022-10-11T12:49:55.469Z,10.05
2022-10-11T12:52:34.281Z,9.05
2022-10-11T12:55:29.885Z,16.67
2022-10-11T12:58:23.246Z,15.93
2022-10-11T13:00:52.859Z,5.78
2022-10-11T13:03:35.296Z,9.30
2022-10-11T13:06:15.817Z,11.25
2022-10-11T13:08:47.367Z,10.05
2022-10-11T13:11:20.608Z,7.97
2022-10-11T13:13:58.080Z,11.55
2022-10-11T13:16:28.785Z,9.43
2022-10-11T13:19:00.339Z,14.23
2022-10-11T13:21:32.547Z,13.10
2022-10-11T13:24:01.568Z,10.23
2022-10-11T13:26:32.343Z,6.85
2022-10-11T13:29:03.223Z,9.75
2022-10-11T13:31:30.050Z,6.78
2022-10-11T13:33:59.305Z,8.32
2022-10-11T13:36:27.363Z,9.50
2022-10-11T13:38:57.638Z,12.02
2022-10-11T13:41:30.439Z,8.65
2022-10-11T13:43:59.495Z,8.63
2022-10-11T13:46:28.461Z,12.88
2022-10-11T13:49:04.266Z,8.35
2022-10-11T13:51:34.210Z,8.07
2022-10-11T13:54:10.526Z,8.52
2022-10-11T13:56:48.047Z,9.65
2022-10-11T13:59:23.606Z,9.05
2022-10-11T14:01:57.556Z,6.82
2022-10-11T14:04:29.506Z,6.10
2022-10-11T14:07:03.198Z,13.18
2022-10-11T14:09:32.061Z,9.70
2022-10-11T14:12:26.993Z,7.75
2022-10-11T14:14:54.313Z,8.38
2022-10-11T14:17:31.870Z,7.75
2022-10-11T14:20:38.392Z,6.88
2022-10-11T14:23:06.027Z,12.70
2022-10-11T14:25:33.798Z,9.75
2022-10-11T14:28:01.155Z,13.80
2022-10-11T14:30:31.422Z,7.78
2022-10-11T14:33:00.988Z,11.30
2022-10-11T14:35:31.818Z,11.90
2022-10-11T14:37:58.787Z,11.80
2022-10-11T14:40:30.792Z,8.13
2022-10-11T14:42:59.230Z,8.02
2022-10-11T14:45:26.235Z,8.52
2022-10-11T14:47:53.624Z,10.05
2022-10-11T14:50:51.794Z,9.27
2022-10-11T14:53:18.852Z,11.32
2022-10-11T14:55:46.015Z,5.97
2022-10-11T14:58:15.409Z,10.38
2022-10-11T15:00:42.226Z,8.85
2022-10-11T15:03:09.046Z,8.13
2022-10-11T15:05:36.978Z,8.70
2022-10-11T15:08:05.501Z,11.75
2022-10-11T15:10:43.899Z,9.98
2022-10-11T15:13:11.590Z,13.63
2022-10-11T15:15:41.466Z,8.60
2022-10-11T15:18:13.241Z,10.63
2022-10-11T15:20:42.712Z,9.50
2022-10-11T15:23:10.528Z,7.22
2022-10-11T15:25:39.686Z,9.10
2022-10-11T15:28:07.974Z,7.20
2022-10-11T15:30:41.454Z,6.95
2022-10-11T15:33:11.149Z,9.80
2022-10-11T15:35:38.049Z,10.10
2022-10-11T15:38:04.983Z,8.98
2022-10-11T15:40:35.761Z,8.05
2022-10-11T15:43:03.389Z,13.73
2022-10-11T15:45:31.037Z,8.82
2022-10-11T15:47:58.507Z,9.23
2022-10-11T15:50:47.901Z,10.82
2022-10-11T15:53:17.812Z,15.07
2022-10-11T15:55:53.068Z,9.70
2022-10-11T15:58:21.317Z,8.43
2022-10-11T16:00:50.837Z,7.97
2022-10-11T16:03:17.960Z,8.88
2022-10-11T16:05:44.919Z,9.40
2022-10-11T16:08:12.526Z,7.57
2022-10-11T16:10:40.312Z,7.90
2022-10-11T16:13:07.807Z,7.50
2022-10-11T16:15:37.767Z,9.37
2022-10-11T16:18:05.882Z,12.33
2022-10-11T16:20:32.869Z,9.87
2022-10-11T16:23:00.128Z,9.33
2022-10-11T16:25:28.175Z,8.57
2022-10-11T16:27:55.031Z,8.97
2022-10-11T16:30:22.070Z,12.90
2022-10-11T16:32:49.322Z,10.73
2022-10-11T16:35:17.290Z,7.17
2022-10-11T16:37:46.073Z,9.10
2022-10-11T16:40:20.831Z,10.60
2022-10-11T16:42:48.386Z,10.60
2022-10-11T16:45:17.872Z,9.20
2022-10-11T16:47:46.188Z,9.67
2022-10-11T16:50:13.673Z,10.97
2022-10-11T16:52:40.466Z,10.03
2022-10-11T16:55:09.526Z,8.63
2022-10-11T16:57:37.871Z,10.67
2022-10-11T17:00:09.688Z,6.93
2022-10-11T17:02:37.015Z,12.13
2022-10-11T17:05:04.196Z,7.93
2022-10-11T17:07:31.467Z,10.90
2022-10-11T17:09:59.067Z,8.57
2022-10-11T17:12:26.069Z,11.43
2022-10-11T17:14:54.119Z,14.47
2022-10-11T17:17:21.218Z,14.97
2022-10-11T17:19:48.416Z,13.77
2022-10-11T17:22:18.954Z,10.03
2022-10-11T17:24:46.717Z,9.70
2022-10-11T17:27:13.934Z,9.57
2022-10-11T17:29:40.904Z,8.10
2022-10-11T17:32:08.388Z,7.20
2022-10-11T17:34:35.600Z,11.10
2022-10-11T17:37:02.648Z,15.70
2022-10-11T17:39:29.466Z,13.37
2022-10-11T17:41:56.424Z,12.27
2022-10-11T17:44:23.273Z,11.23
2022-10-11T17:46:50.312Z,12.47
2022-10-11T17:49:17.211Z,12.47
2022-10-11T17:51:47.041Z,16.03
2022-10-11T17:54:14.370Z,9.33
2022-10-11T17:56:41.741Z,11.93
2022-10-11T17:59:14.474Z,18.17
2022-10-11T18:01:41.461Z,24.97
2022-10-11T18:04:13.472Z,20.43
2022-10-11T18:06:47.286Z,16.03
2022-10-11T18:09:16.562Z,19.00
2022-10-11T18:11:43.939Z,12.60
2022-10-11T18:14:11.085Z,11.87
2022-10-11T18:16:38.978Z,11.03
2022-10-11T18:19:10.407Z,12.90
2022-10-11T18:21:37.910Z,10.90
2022-10-11T18:24:12.576Z,13.13
2022-10-11T18:26:39.480Z,18.57
2022-10-11T18:29:06.462Z,15.70
2022-10-11T18:31:39.277Z,16.80
2022-10-11T18:34:08.556Z,11.73
2022-10-11T18:36:37.893Z,12.67
2022-10-11T18:39:07.595Z,16.50
2022-10-11T18:41:35.741Z,18.50
2022-10-11T18:44:08.728Z,11.83
2022-10-11T18:46:35.726Z,12.47
2022-10-11T18:49:03.887Z,15.20
2022-10-11T18:51:36.713Z,14.40
2022-10-11T18:54:05.642Z,11.57
2022-10-11T18:56:34.696Z,13.83
2022-10-11T18:59:03.196Z,15.73
2022-10-11T19:01:32.832Z,13.57
2022-10-11T19:04:01.749Z,16.63
2022-10-11T19:06:34.935Z,16.07
2022-10-11T19:09:06.101Z,18.93
2022-10-11T19:11:33.178Z,19.37
2022-10-11T19:14:03.498Z,18.67
2022-10-11T19:16:30.731Z,29.27
2022-10-11T19:18:58.023Z,20.20
2022-10-11T19:21:25.691Z,22.43
2022-10-11T19:23:55.071Z,20.07
2022-10-11T19:26:26.350Z,21.20
2022-10-11T19:29:09.841Z,19.43
2022-10-11T19:31:43.686Z,19.83
2022-10-11T19:34:11.939Z,20.07
2022-10-11T19:36:41.845Z,24.70
2022-10-11T19:39:13.631Z,18.53
2022-10-11T19:41:41.401Z,17.80
2022-10-11T19:44:08.606Z,17.40
2022-10-11T19:46:51.032Z,18.67
2022-10-11T19:49:21.757Z,17.10
2022-10-11T19:51:48.824Z,14.37
2022-10-11T19:54:18.586Z,19.27
2022-10-11T19:56:48.485Z,13.63
2022-10-11T19:59:15.826Z,19.93
2022-10-11T20:01:46.662Z,17.80
2022-10-11T20:04:39.477Z,19.80
2022-10-11T20:07:03.697Z,14.67
2022-10-11T20:09:31.165Z,16.97
2022-10-11T20:11:58.618Z,18.70
2022-10-11T20:14:26.172Z,15.77
2022-10-11T20:16:52.947Z,14.43
2022-10-11T20:19:26.492Z,16.10
2022-10-11T20:21:57.257Z,14.80
2022-10-11T20:24:24.516Z,15.13
2022-10-11T20:26:51.565Z,19.00
2022-10-11T20:29:18.553Z,20.60
2022-10-11T20:31:47.419Z,13.53
2022-10-11T20:34:20.464Z,14.93
2022-10-11T20:36:49.312Z,19.97
2022-10-11T20:39:16.943Z,19.73
2022-10-11T20:41:43.917Z,16.57
2022-10-11T20:44:16.190Z,17.10
2022-10-11T20:46:43.194Z,16.40
2022-10-11T20:49:11.885Z,13.83
2022-10-11T20:51:41.794Z,13.87
2022-10-11T20:54:09.257Z,16.20
2022-10-11T20:56:37.972Z,16.13
2022-10-11T20:59:08.548Z,15.77
2022-10-11T21:01:40.804Z,16.00
2022-10-11T21:04:14.290Z,13.43
2022-10-11T21:06:41.199Z,17.50
2022-10-11T21:09:09.384Z,18.40
2022-10-11T21:11:38.094Z,18.77
2022-10-11T21:14:06.444Z,19.00
2022-10-11T21:16:34.430Z,19.57
2022-10-11T21:19:02.386Z,19.07
2022-10-11T21:21:30.048Z,18.33
2022-10-11T21:23:59.303Z,14.63
2022-10-11T21:26:27.654Z,15.17
2022-10-11T21:28:54.809Z,17.00
2022-10-11T21:31:23.451Z,16.90
2022-10-11T21:33:53.257Z,20.33
2022-10-11T21:36:23.318Z,19.20
2022-10-11T21:38:51.327Z,22.93
2022-10-11T21:41:25.707Z,17.40
2022-10-11T21:43:53.159Z,24.80
2022-10-11T21:46:54.037Z,17.00
2022-10-11T21:49:15.457Z,15.63
2022-10-11T21:51:42.284Z,19.93
2022-10-11T21:54:09.543Z,20.20
2022-10-11T21:56:37.742Z,17.73
2022-10-11T21:59:06.687Z,16.60
2022-10-11T22:01:36.972Z,16.03
2022-10-11T22:04:07.306Z,17.93
2022-10-11T22:06:34.749Z,13.90
2022-10-11T22:09:03.727Z,14.17
2022-10-11T22:11:30.761Z,14.67
2022-10-11T22:13:57.775Z,15.23
2022-10-11T22:16:24.588Z,12.33
2022-10-11T22:18:57.002Z,17.47
2022-10-11T22:21:24.550Z,12.17
2022-10-11T22:23:52.888Z,11.70
2022-10-11T22:26:24.916Z,10.53
2022-10-11T22:28:53.525Z,14.70
2022-10-11T22:31:21.657Z,16.60
2022-10-11T22:33:49.495Z,11.60
2022-10-11T22:36:18.988Z,11.97
2022-10-11T22:38:45.706Z,10.63
2022-10-11T22:41:13.103Z,12.70
2022-10-11T22:43:40.390Z,11.20
2022-10-11T22:46:08.035Z,12.63
2022-10-11T22:48:35.292Z,13.17
2022-10-11T22:51:02.596Z,13.47
2022-10-11T22:53:30.475Z,10.90
2022-10-11T22:55:57.259Z,11.00
2022-10-11T22:58:24.153Z,12.13
2022-10-11T23:00:50.879Z,15.57
2022-10-11T23:03:18.486Z,12.10
2022-10-11T23:05:54.696Z,14.23
2022-10-11T23:08:24.799Z,16.20
2022-10-11T23:10:52.906Z,11.00
2022-10-11T23:13:19.820Z,11.93
2022-10-11T23:15:46.773Z,14.47
2022-10-11T23:18:15.966Z,9.70
2022-10-11T23:20:42.855Z,12.37
2022-10-11T23:23:09.610Z,9.90
2022-10-11T23:25:36.441Z,13.10
2022-10-11T23:28:03.234Z,11.77
2022-10-11T23:30:30.271Z,8.63
2022-10-11T23:32:56.992Z,12.47
2022-10-11T23:35:24.115Z,9.80
2022-10-11T23:37:53.273Z,13.27
2022-10-11T23:40:20.250Z,12.43
2022-10-11T23:42:47.002Z,7.40
2022-10-11T23:45:13.828Z,8.37
2022-10-11T23:47:40.985Z,18.00
2022-10-11T23:50:08.629Z,11.50
2022-10-11T23:52:35.640Z,10.20
2022-10-11T23:55:03.910Z,11.77
2022-10-11T23:57:31.004Z,7.47
2022-10-11T23:59:57.744Z,12.13
